sensor_id;sensor_type;location;lat;lon;timestamp;pressure;altitude;pressure_sealevel;temperature;humidity
49122;BME280;35529;44.342;25.944;2023-06-10T00:01:46;100111.00;;;18.33;100.00
49122;BME280;35529;44.342;25.944;2023-06-10T00:04:15;100113.91;;;18.26;100.00
49122;BME280;35529;44.342;25.944;2023-06-10T00:06:45;100113.97;;;18.32;100.00
49122;BME280;35529;44.342;25.944;2023-06-10T00:09:14;100104.06;;;18.37;100.00
49122;BME280;35529;44.342;25.944;2023-06-10T00:11:40;100106.41;;;18.29;100.00
49122;BME280;35529;44.342;25.944;2023-06-10T00:14:06;100110.81;;;18.07;100.00
49122;BME280;35529;44.342;25.944;2023-06-10T00:16:33;100105.75;;;17.89;100.00
49122;BME280;35529;44.342;25.944;2023-06-10T00:19:00;100111.53;;;17.75;100.00
49122;BME280;35529;44.342;25.944;2023-06-10T00:21:30;100110.69;;;17.70;100.00
49122;BME280;35529;44.342;25.944;2023-06-10T00:23:56;100095.91;;;17.67;100.00
49122;BME280;35529;44.342;25.944;2023-06-10T00:26:22;100100.16;;;17.63;100.00
49122;BME280;35529;44.342;25.944;2023-06-10T00:28:49;100098.53;;;17.62;100.00
49122;BME280;35529;44.342;25.944;2023-06-10T00:31:15;100095.78;;;17.57;100.00
49122;BME280;35529;44.342;25.944;2023-06-10T00:33:41;100095.13;;;17.45;100.00
49122;BME280;35529;44.342;25.944;2023-06-10T00:36:08;100098.78;;;17.38;100.00
49122;BME280;35529;44.342;25.944;2023-06-10T00:38:34;100104.72;;;17.40;100.00
49122;BME280;35529;44.342;25.944;2023-06-10T00:41:00;100106.22;;;17.31;100.00
49122;BME280;35529;44.342;25.944;2023-06-10T00:43:26;100117.78;;;17.32;100.00
49122;BME280;35529;44.342;25.944;2023-06-10T00:45:52;100100.34;;;17.34;100.00
49122;BME280;35529;44.342;25.944;2023-06-10T00:48:19;100110.47;;;17.27;100.00
49122;BME280;35529;44.342;25.944;2023-06-10T00:50:46;100110.47;;;17.27;100.00
49122;BME280;35529;44.342;25.944;2023-06-10T00:53:12;100114.84;;;17.33;100.00
49122;BME280;35529;44.342;25.944;2023-06-10T00:55:38;100125.63;;;17.38;100.00
49122;BME280;35529;44.342;25.944;2023-06-10T01:01:09;100116.59;;;17.45;100.00
49122;BME280;35529;44.342;25.944;2023-06-10T01:06:41;100125.28;;;17.30;100.00
49122;BME280;35529;44.342;25.944;2023-06-10T01:12:05;100128.31;;;17.16;100.00
49122;BME280;35529;44.342;25.944;2023-06-10T01:14:35;100126.13;;;17.13;100.00
49122;BME280;35529;44.342;25.944;2023-06-10T01:17:01;100132.81;;;17.11;100.00
49122;BME280;35529;44.342;25.944;2023-06-10T01:19:31;100123.25;;;17.20;100.00
49122;BME280;35529;44.342;25.944;2023-06-10T01:21:57;100125.72;;;17.21;100.00
49122;BME280;35529;44.342;25.944;2023-06-10T01:24:26;100124.00;;;17.15;100.00
49122;BME280;35529;44.342;25.944;2023-06-10T01:26:52;100117.34;;;17.18;100.00
49122;BME280;35529;44.342;25.944;2023-06-10T01:29:21;100125.81;;;17.09;100.00
49122;BME280;35529;44.342;25.944;2023-06-10T01:31:52;100124.31;;;16.97;100.00
49122;BME280;35529;44.342;25.944;2023-06-10T01:34:21;100123.25;;;16.98;100.00
49122;BME280;35529;44.342;25.944;2023-06-10T01:36:49;100122.31;;;17.09;100.00
49122;BME280;35529;44.342;25.944;2023-06-10T01:39:16;100114.09;;;17.16;100.00
49122;BME280;35529;44.342;25.944;2023-06-10T01:41:44;100124.94;;;17.26;100.00
49122;BME280;35529;44.342;25.944;2023-06-10T01:44:10;100127.38;;;17.28;100.00
49122;BME280;35529;44.342;25.944;2023-06-10T01:46:36;100121.47;;;17.25;100.00
49122;BME280;35529;44.342;25.944;2023-06-10T01:49:02;100127.38;;;17.28;100.00
49122;BME280;35529;44.342;25.944;2023-06-10T01:51:28;100120.63;;;17.25;100.00
49122;BME280;35529;44.342;25.944;2023-06-10T01:53:57;100122.72;;;17.18;100.00
49122;BME280;35529;44.342;25.944;2023-06-10T01:56:23;100117.34;;;17.18;100.00
49122;BME280;35529;44.342;25.944;2023-06-10T01:58:49;100107.72;;;17.22;100.00
49122;BME280;35529;44.342;25.944;2023-06-10T02:01:15;100110.16;;;17.23;100.00
49122;BME280;35529;44.342;25.944;2023-06-10T02:03:41;100119.44;;;17.16;100.00
49122;BME280;35529;44.342;25.944;2023-06-10T02:06:07;100120.75;;;17.13;100.00
49122;BME280;35529;44.342;25.944;2023-06-10T02:08:33;100122.09;;;17.11;100.00
49122;BME280;35529;44.342;25.944;2023-06-10T02:10:59;100125.31;;;17.13;100.00
49122;BME280;35529;44.342;25.944;2023-06-10T02:13:25;100128.41;;;17.21;100.00
49122;BME280;35529;44.342;25.944;2023-06-10T02:15:51;100125.75;;;17.26;100.00
49122;BME280;35529;44.342;25.944;2023-06-10T02:18:19;100126.91;;;17.31;100.00
49122;BME280;35529;44.342;25.944;2023-06-10T02:20:46;100131.44;;;17.30;100.00
49122;BME280;35529;44.342;25.944;2023-06-10T02:23:12;100124.16;;;17.25;100.00
49122;BME280;35529;44.342;25.944;2023-06-10T02:25:38;100126.81;;;17.03;100.00
49122;BME280;35529;44.342;25.944;2023-06-10T02:28:04;100138.47;;;16.92;100.00
49122;BME280;35529;44.342;25.944;2023-06-10T02:30:31;100138.38;;;16.87;100.00
49122;BME280;35529;44.342;25.944;2023-06-10T02:32:57;100139.84;;;16.78;100.00
49122;BME280;35529;44.342;25.944;2023-06-10T02:35:24;100134.72;;;16.76;100.00
49122;BME280;35529;44.342;25.944;2023-06-10T02:37:50;100133.41;;;16.79;100.00
49122;BME280;35529;44.342;25.944;2023-06-10T02:40:16;100135.78;;;16.92;100.00
49122;BME280;35529;44.342;25.944;2023-06-10T02:42:43;100130.97;;;16.94;100.00
49122;BME280;35529;44.342;25.944;2023-06-10T02:45:09;100136.66;;;16.98;100.00
49122;BME280;35529;44.342;25.944;2023-06-10T02:47:37;100136.31;;;17.11;100.00
49122;BME280;35529;44.342;25.944;2023-06-10T02:50:03;100140.25;;;17.25;100.00
49122;BME280;35529;44.342;25.944;2023-06-10T02:52:29;100142.00;;;17.37;100.00
49122;BME280;35529;44.342;25.944;2023-06-10T02:54:57;100145.91;;;17.51;100.00
49122;BME280;35529;44.342;25.944;2023-06-10T02:57:23;100149.03;;;17.65;100.00
49122;BME280;35529;44.342;25.944;2023-06-10T02:59:49;100139.19;;;17.76;100.00
49122;BME280;35529;44.342;25.944;2023-06-10T03:02:15;100142.31;;;17.90;100.00
49122;BME280;35529;44.342;25.944;2023-06-10T03:04:41;100140.34;;;18.07;100.00
49122;BME280;35529;44.342;25.944;2023-06-10T03:07:09;100136.72;;;18.24;100.00
49122;BME280;35529;44.342;25.944;2023-06-10T03:09:37;100142.25;;;18.39;100.00
49122;BME280;35529;44.342;25.944;2023-06-10T03:12:03;100131.91;;;18.58;100.00
49122;BME280;35529;44.342;25.944;2023-06-10T03:14:29;100139.56;;;18.77;100.00
49122;BME280;35529;44.342;25.944;2023-06-10T03:16:55;100138.88;;;18.92;100.00
49122;BME280;35529;44.342;25.944;2023-06-10T03:19:21;100138.16;;;19.12;100.00
49122;BME280;35529;44.342;25.944;2023-06-10T03:21:49;100130.44;;;19.31;100.00
49122;BME280;35529;44.342;25.944;2023-06-10T03:24:16;100137.50;;;19.48;100.00
49122;BME280;35529;44.342;25.944;2023-06-10T03:26:42;100137.28;;;19.65;100.00
49122;BME280;35529;44.342;25.944;2023-06-10T03:29:08;100139.44;;;19.73;100.00
49122;BME280;35529;44.342;25.944;2023-06-10T03:31:34;100135.94;;;19.67;100.00
49122;BME280;35529;44.342;25.944;2023-06-10T03:34:02;100148.28;;;19.53;100.00
49122;BME280;35529;44.342;25.944;2023-06-10T03:36:28;100146.59;;;19.31;100.00
49122;BME280;35529;44.342;25.944;2023-06-10T03:38:55;100148.22;;;19.32;100.00
49122;BME280;35529;44.342;25.944;2023-06-10T03:41:22;100146.59;;;19.31;100.00
49122;BME280;35529;44.342;25.944;2023-06-10T03:43:48;100144.94;;;19.30;100.00
49122;BME280;35529;44.342;25.944;2023-06-10T03:46:14;100141.66;;;19.13;100.00
49122;BME280;35529;44.342;25.944;2023-06-10T03:48:41;100137.28;;;18.96;100.00
49122;BME280;35529;44.342;25.944;2023-06-10T03:51:07;100129.75;;;19.03;100.00
49122;BME280;35529;44.342;25.944;2023-06-10T03:53:33;100134.22;;;19.35;100.00
49122;BME280;35529;44.342;25.944;2023-06-10T03:55:59;100127.50;;;19.43;100.00
49122;BME280;35529;44.342;25.944;2023-06-10T03:58:25;100138.81;;;19.40;100.00
49122;BME280;35529;44.342;25.944;2023-06-10T04:00:52;100141.59;;;19.71;100.00
49122;BME280;35529;44.342;25.944;2023-06-10T04:03:18;100146.22;;;19.81;100.00
49122;BME280;35529;44.342;25.944;2023-06-10T04:05:47;100140.53;;;19.67;100.00
49122;BME280;35529;44.342;25.944;2023-06-10T04:08:13;100153.75;;;19.79;100.00
49122;BME280;35529;44.342;25.944;2023-06-10T04:10:39;100147.03;;;19.86;100.00
49122;BME280;35529;44.342;25.944;2023-06-10T04:13:05;100140.84;;;19.86;100.00
49122;BME280;35529;44.342;25.944;2023-06-10T04:15:31;100144.63;;;19.90;100.00
49122;BME280;35529;44.342;25.944;2023-06-10T04:18:00;100145.75;;;20.20;100.00
49122;BME280;35529;44.342;25.944;2023-06-10T04:20:27;100146.28;;;20.37;100.00
49122;BME280;35529;44.342;25.944;2023-06-10T04:22:53;100149.50;;;20.60;100.00
49122;BME280;35529;44.342;25.944;2023-06-10T04:25:19;100155.19;;;20.79;100.00
49122;BME280;35529;44.342;25.944;2023-06-10T04:27:46;100152.75;;;20.83;100.00
49122;BME280;35529;44.342;25.944;2023-06-10T04:30:12;100154.06;;;20.90;100.00
49122;BME280;35529;44.342;25.944;2023-06-10T04:32:38;100145.19;;;20.95;100.00
49122;BME280;35529;44.342;25.944;2023-06-10T04:35:04;100154.00;;;21.21;100.00
49122;BME280;35529;44.342;25.944;2023-06-10T04:37:30;100137.94;;;21.56;100.00
49122;BME280;35529;44.342;25.944;2023-06-10T04:39:57;100145.16;;;21.71;100.00
49122;BME280;35529;44.342;25.944;2023-06-10T04:42:24;100156.38;;;21.88;100.00
49122;BME280;35529;44.342;25.944;2023-06-10T04:44:50;100147.38;;;22.03;100.00
49122;BME280;35529;44.342;25.944;2023-06-10T04:47:16;100157.59;;;22.12;100.00
49122;BME280;35529;44.342;25.944;2023-06-10T04:49:43;100149.91;;;22.29;100.00
49122;BME280;35529;44.342;25.944;2023-06-10T04:52:09;100147.28;;;22.53;100.00
49122;BME280;35529;44.342;25.944;2023-06-10T04:54:35;100157.06;;;22.79;100.00
49122;BME280;35529;44.342;25.944;2023-06-10T04:57:01;100149.56;;;22.94;100.00
49122;BME280;35529;44.342;25.944;2023-06-10T04:59:27;100156.34;;;23.21;100.00
49122;BME280;35529;44.342;25.944;2023-06-10T05:01:53;100154.78;;;23.39;100.00
49122;BME280;35529;44.342;25.944;2023-06-10T05:07:43;100153.94;;;23.82;100.00
49122;BME280;35529;44.342;25.944;2023-06-10T05:10:09;100146.91;;;24.00;100.00
49122;BME280;35529;44.342;25.944;2023-06-10T05:12:36;100153.25;;;24.09;100.00
49122;BME280;35529;44.342;25.944;2023-06-10T05:15:02;100147.09;;;24.23;100.00
49122;BME280;35529;44.342;25.944;2023-06-10T05:17:28;100149.47;;;24.43;100.00
49122;BME280;35529;44.342;25.944;2023-06-10T05:19:54;100144.00;;;24.63;100.00
49122;BME280;35529;44.342;25.944;2023-06-10T05:22:20;100149.66;;;24.66;100.00
49122;BME280;35529;44.342;25.944;2023-06-10T05:24:46;100154.31;;;24.80;100.00
49122;BME280;35529;44.342;25.944;2023-06-10T05:27:12;100148.25;;;24.97;100.00
49122;BME280;35529;44.342;25.944;2023-06-10T05:29:38;100153.19;;;25.08;100.00
49122;BME280;35529;44.342;25.944;2023-06-10T05:32:04;100148.59;;;25.09;100.00
49122;BME280;35529;44.342;25.944;2023-06-10T05:34:31;100149.88;;;25.25;100.00
49122;BME280;35529;44.342;25.944;2023-06-10T05:36:57;100145.53;;;25.38;100.00
49122;BME280;35529;44.342;25.944;2023-06-10T05:39:23;100132.75;;;25.53;100.00
49122;BME280;35529;44.342;25.944;2023-06-10T05:41:49;100143.88;;;25.65;100.00
49122;BME280;35529;44.342;25.944;2023-06-10T05:44:15;100137.53;;;25.70;100.00
49122;BME280;35529;44.342;25.944;2023-06-10T05:46:41;100145.38;;;25.71;100.00
49122;BME280;35529;44.342;25.944;2023-06-10T05:49:07;100142.03;;;25.74;100.00
49122;BME280;35529;44.342;25.944;2023-06-10T05:51:33;100133.53;;;25.90;100.00
49122;BME280;35529;44.342;25.944;2023-06-10T05:53:59;100143.06;;;26.01;100.00
49122;BME280;35529;44.342;25.944;2023-06-10T05:56:26;100143.81;;;25.93;100.00
49122;BME280;35529;44.342;25.944;2023-06-10T05:58:52;100140.56;;;26.05;100.00
49122;BME280;35529;44.342;25.944;2023-06-10T06:01:18;100152.50;;;26.18;100.00
49122;BME280;35529;44.342;25.944;2023-06-10T06:03:44;100150.22;;;26.34;100.00
49122;BME280;35529;44.342;25.944;2023-06-10T06:06:10;100154.78;;;26.47;100.00
49122;BME280;35529;44.342;25.944;2023-06-10T06:08:36;100146.50;;;26.61;100.00
49122;BME280;35529;44.342;25.944;2023-06-10T06:11:04;100144.94;;;26.69;100.00
49122;BME280;35529;44.342;25.944;2023-06-10T06:13:30;100149.84;;;26.81;100.00
49122;BME280;35529;44.342;25.944;2023-06-10T06:15:56;100155.50;;;26.93;100.00
49122;BME280;35529;44.342;25.944;2023-06-10T06:18:23;100159.06;;;27.02;100.00
49122;BME280;35529;44.342;25.944;2023-06-10T06:20:49;100159.59;;;27.22;100.00
49122;BME280;35529;44.342;25.944;2023-06-10T06:23:15;100156.88;;;27.31;100.00
49122;BME280;35529;44.342;25.944;2023-06-10T06:25:41;100153.59;;;27.42;100.00
49122;BME280;35529;44.342;25.944;2023-06-10T06:28:11;100160.16;;;27.59;100.00
49122;BME280;35529;44.342;25.944;2023-06-10T06:30:37;100155.06;;;27.75;100.00
49122;BME280;35529;44.342;25.944;2023-06-10T06:33:03;100147.97;;;27.91;99.13
49122;BME280;35529;44.342;25.944;2023-06-10T06:35:32;100140.13;;;28.07;98.22
49122;BME280;35529;44.342;25.944;2023-06-10T06:37:59;100145.56;;;28.25;97.78
49122;BME280;35529;44.342;25.944;2023-06-10T06:40:25;100149.53;;;28.45;96.46
49122;BME280;35529;44.342;25.944;2023-06-10T06:42:52;100141.94;;;28.59;100.00
49122;BME280;35529;44.342;25.944;2023-06-10T06:45:18;100143.38;;;28.74;100.00
49122;BME280;35529;44.342;25.944;2023-06-10T06:47:44;100132.84;;;28.94;100.00
49122;BME280;35529;44.342;25.944;2023-06-10T06:50:10;100136.59;;;29.10;100.00
49122;BME280;35529;44.342;25.944;2023-06-10T06:52:36;100140.50;;;29.09;98.41
49122;BME280;35529;44.342;25.944;2023-06-10T06:55:02;100139.31;;;29.19;96.72
49122;BME280;35529;44.342;25.944;2023-06-10T06:57:28;100129.75;;;29.34;95.25
49122;BME280;35529;44.342;25.944;2023-06-10T06:59:54;100127.63;;;29.61;93.44
49122;BME280;35529;44.342;25.944;2023-06-10T07:02:20;100129.03;;;29.88;91.17
49122;BME280;35529;44.342;25.944;2023-06-10T07:04:46;100135.03;;;30.15;89.45
49122;BME280;35529;44.342;25.944;2023-06-10T07:07:15;100129.72;;;30.31;87.46
49122;BME280;35529;44.342;25.944;2023-06-10T07:09:41;100126.34;;;30.34;84.82
49122;BME280;35529;44.342;25.944;2023-06-10T07:12:07;100130.97;;;30.21;83.29
49122;BME280;35529;44.342;25.944;2023-06-10T07:14:34;100131.59;;;30.06;83.40
49122;BME280;35529;44.342;25.944;2023-06-10T07:17:00;100120.09;;;30.13;83.37
49122;BME280;35529;44.342;25.944;2023-06-10T07:19:26;100116.22;;;30.14;84.85
49122;BME280;35529;44.342;25.944;2023-06-10T07:21:52;100127.75;;;30.19;84.52
49122;BME280;35529;44.342;25.944;2023-06-10T07:24:18;100125.03;;;30.19;84.47
49122;BME280;35529;44.342;25.944;2023-06-10T07:26:45;100121.63;;;30.22;83.63
49122;BME280;35529;44.342;25.944;2023-06-10T07:29:12;100116.59;;;30.24;83.40
49122;BME280;35529;44.342;25.944;2023-06-10T07:31:38;100124.72;;;30.21;82.46
49122;BME280;35529;44.342;25.944;2023-06-10T07:34:04;100114.97;;;30.11;83.41
49122;BME280;35529;44.342;25.944;2023-06-10T07:36:30;100114.78;;;29.95;84.05
49122;BME280;35529;44.342;25.944;2023-06-10T07:38:56;100119.34;;;29.91;84.60
49122;BME280;35529;44.342;25.944;2023-06-10T07:41:23;100119.34;;;29.91;89.04
49122;BME280;35529;44.342;25.944;2023-06-10T07:43:52;100123.00;;;29.95;89.55
49122;BME280;35529;44.342;25.944;2023-06-10T07:46:20;100117.66;;;29.99;89.72
49122;BME280;35529;44.342;25.944;2023-06-10T07:48:47;100124.81;;;29.91;91.26
49122;BME280;35529;44.342;25.944;2023-06-10T07:51:14;100121.06;;;29.74;92.52
49122;BME280;35529;44.342;25.944;2023-06-10T07:53:40;100115.59;;;29.53;93.96
49122;BME280;35529;44.342;25.944;2023-06-10T07:56:07;100119.69;;;29.17;95.68
49122;BME280;35529;44.342;25.944;2023-06-10T07:58:33;100119.63;;;28.96;97.50
49122;BME280;35529;44.342;25.944;2023-06-10T08:00:59;100128.25;;;28.77;97.68
49122;BME280;35529;44.342;25.944;2023-06-10T08:03:25;100131.19;;;28.54;97.60
49122;BME280;35529;44.342;25.944;2023-06-10T08:05:51;100122.44;;;28.22;99.27
49122;BME280;35529;44.342;25.944;2023-06-10T08:08:17;100123.91;;;27.93;99.84
49122;BME280;35529;44.342;25.944;2023-06-10T08:10:43;100123.59;;;27.69;100.00
49122;BME280;35529;44.342;25.944;2023-06-10T08:13:09;100123.44;;;27.48;100.00
49122;BME280;35529;44.342;25.944;2023-06-10T08:15:35;100128.03;;;27.30;100.00
49122;BME280;35529;44.342;25.944;2023-06-10T08:18:01;100121.59;;;27.25;100.00
49122;BME280;35529;44.342;25.944;2023-06-10T08:20:27;100123.03;;;27.23;100.00
49122;BME280;35529;44.342;25.944;2023-06-10T08:22:53;100129.31;;;27.23;100.00
49122;BME280;35529;44.342;25.944;2023-06-10T08:25:20;100123.22;;;27.26;100.00
49122;BME280;35529;44.342;25.944;2023-06-10T08:27:48;100123.59;;;27.42;100.00
49122;BME280;35529;44.342;25.944;2023-06-10T08:30:32;100126.19;;;27.65;100.00
49122;BME280;35529;44.342;25.944;2023-06-10T08:33:04;100124.09;;;27.80;99.04
49122;BME280;35529;44.342;25.944;2023-06-10T08:35:30;100119.41;;;27.89;94.70
49122;BME280;35529;44.342;25.944;2023-06-10T08:37:57;100124.09;;;27.97;95.15
49122;BME280;35529;44.342;25.944;2023-06-10T08:40:23;100115.41;;;28.21;93.90
49122;BME280;35529;44.342;25.944;2023-06-10T08:42:55;100110.28;;;28.58;91.18
49122;BME280;35529;44.342;25.944;2023-06-10T08:45:24;100111.84;;;28.86;89.43
49122;BME280;35529;44.342;25.944;2023-06-10T08:47:55;100114.47;;;29.03;88.63
49122;BME280;35529;44.342;25.944;2023-06-10T08:50:26;100106.72;;;29.05;89.46
49122;BME280;35529;44.342;25.944;2023-06-10T08:52:54;100109.75;;;29.42;87.62
49122;BME280;35529;44.342;25.944;2023-06-10T08:55:23;100105.56;;;29.87;86.37
49122;BME280;35529;44.342;25.944;2023-06-10T08:57:52;100098.38;;;30.41;84.94
49122;BME280;35529;44.342;25.944;2023-06-10T09:00:19;100096.59;;;30.95;82.32
49122;BME280;35529;44.342;25.944;2023-06-10T09:02:45;100096.66;;;31.35;80.90
49122;BME280;35529;44.342;25.944;2023-06-10T09:05:12;100103.22;;;31.71;78.00
49122;BME280;35529;44.342;25.944;2023-06-10T09:07:39;100092.47;;;31.66;75.60
49122;BME280;35529;44.342;25.944;2023-06-10T09:10:05;100093.91;;;31.76;76.57
49122;BME280;35529;44.342;25.944;2023-06-10T09:12:33;100094.41;;;31.94;74.60
49122;BME280;35529;44.342;25.944;2023-06-10T09:14:59;100096.94;;;32.15;72.58
49122;BME280;35529;44.342;25.944;2023-06-10T09:17:27;100097.31;;;32.46;70.84
49122;BME280;35529;44.342;25.944;2023-06-10T09:19:53;100088.44;;;32.68;68.69
49122;BME280;35529;44.342;25.944;2023-06-10T09:22:24;100085.44;;;32.89;69.05
49122;BME280;35529;44.342;25.944;2023-06-10T09:25:01;100084.31;;;33.10;68.51
49122;BME280;35529;44.342;25.944;2023-06-10T09:27:29;100082.38;;;33.11;66.28
49122;BME280;35529;44.342;25.944;2023-06-10T09:29:55;100084.81;;;32.96;66.61
49122;BME280;35529;44.342;25.944;2023-06-10T09:32:23;100075.22;;;32.90;65.21
49122;BME280;35529;44.342;25.944;2023-06-10T09:34:49;100079.75;;;32.98;64.66
49122;BME280;35529;44.342;25.944;2023-06-10T09:37:20;100080.63;;;33.02;63.09
49122;BME280;35529;44.342;25.944;2023-06-10T09:42:42;100066.28;;;33.13;63.15
49122;BME280;35529;44.342;25.944;2023-06-10T09:45:08;100071.00;;;33.12;60.97
49122;BME280;35529;44.342;25.944;2023-06-10T09:47:34;100076.94;;;32.79;60.09
49122;BME280;35529;44.342;25.944;2023-06-10T09:50:00;100071.00;;;32.61;61.24
49122;BME280;35529;44.342;25.944;2023-06-10T09:52:28;100070.66;;;32.62;60.45
49122;BME280;35529;44.342;25.944;2023-06-10T09:55:00;100063.91;;;32.75;57.39
49122;BME280;35529;44.342;25.944;2023-06-10T09:57:30;100059.56;;;32.74;58.01
49122;BME280;35529;44.342;25.944;2023-06-10T09:59:56;100059.03;;;32.85;55.01
49122;BME280;35529;44.342;25.944;2023-06-10T10:02:22;100057.97;;;33.09;56.67
49122;BME280;35529;44.342;25.944;2023-06-10T10:04:48;100047.81;;;33.29;55.03
49122;BME280;35529;44.342;25.944;2023-06-10T10:07:14;100049.69;;;33.45;55.55
49122;BME280;35529;44.342;25.944;2023-06-10T10:09:41;100056.72;;;33.62;54.16
49122;BME280;35529;44.342;25.944;2023-06-10T10:12:12;100040.69;;;33.87;52.46
49122;BME280;35529;44.342;25.944;2023-06-10T10:14:39;100042.47;;;34.22;51.43
49122;BME280;35529;44.342;25.944;2023-06-10T10:17:10;100037.25;;;34.40;48.86
49122;BME280;35529;44.342;25.944;2023-06-10T10:19:40;100030.22;;;34.42;47.48
49122;BME280;35529;44.342;25.944;2023-06-10T10:22:10;100031.97;;;33.85;50.44
49122;BME280;35529;44.342;25.944;2023-06-10T10:24:42;100031.81;;;33.97;53.11
49122;BME280;35529;44.342;25.944;2023-06-10T10:27:25;100028.78;;;34.29;47.80
49122;BME280;35529;44.342;25.944;2023-06-10T10:29:52;100023.97;;;34.22;47.27
49122;BME280;35529;44.342;25.944;2023-06-10T10:32:21;100029.31;;;34.35;48.39
49122;BME280;35529;44.342;25.944;2023-06-10T10:34:50;100025.50;;;34.43;45.70
49122;BME280;35529;44.342;25.944;2023-06-10T10:37:19;100027.34;;;34.35;44.57
49122;BME280;35529;44.342;25.944;2023-06-10T10:39:45;100027.88;;;33.98;46.73
49122;BME280;35529;44.342;25.944;2023-06-10T10:42:12;100025.19;;;33.59;45.73
49122;BME280;35529;44.342;25.944;2023-06-10T10:44:38;100025.00;;;33.48;46.13
49122;BME280;35529;44.342;25.944;2023-06-10T10:47:05;100017.47;;;33.45;47.02
49122;BME280;35529;44.342;25.944;2023-06-10T10:49:33;100006.09;;;33.47;46.37
49122;BME280;35529;44.342;25.944;2023-06-10T10:52:01;100018.19;;;33.22;45.91
49122;BME280;35529;44.342;25.944;2023-06-10T10:54:36;100012.91;;;33.33;45.19
49122;BME280;35529;44.342;25.944;2023-06-10T10:59:44;100014.22;;;32.68;37.82
49122;BME280;35529;44.342;25.944;2023-06-10T11:02:10;100007.28;;;32.23;36.76
49122;BME280;35529;44.342;25.944;2023-06-10T11:04:44;100005.69;;;32.06;35.33
49122;BME280;35529;44.342;25.944;2023-06-10T11:07:10;100003.31;;;32.20;34.65
49122;BME280;35529;44.342;25.944;2023-06-10T11:09:36;99997.19;;;31.95;35.43
49122;BME280;35529;44.342;25.944;2023-06-10T11:12:02;99999.56;;;32.13;35.84
49122;BME280;35529;44.342;25.944;2023-06-10T11:14:30;100006.59;;;32.26;35.40
49122;BME280;35529;44.342;25.944;2023-06-10T11:16:59;100000.13;;;32.18;34.25
49122;BME280;35529;44.342;25.944;2023-06-10T11:19:34;100003.34;;;31.92;34.34
49122;BME280;35529;44.342;25.944;2023-06-10T11:22:02;100005.53;;;31.70;35.76
49122;BME280;35529;44.342;25.944;2023-06-10T11:24:29;100002.22;;;31.93;34.68
49122;BME280;35529;44.342;25.944;2023-06-10T11:27:14;100000.34;;;32.13;35.06
49122;BME280;35529;44.342;25.944;2023-06-10T11:29:47;99985.25;;;32.55;34.74
49122;BME280;35529;44.342;25.944;2023-06-10T11:32:20;99992.41;;;32.91;33.26
49122;BME280;35529;44.342;25.944;2023-06-10T11:34:51;99997.94;;;32.95;32.86
49122;BME280;35529;44.342;25.944;2023-06-10T11:37:18;99992.31;;;32.88;32.69
49122;BME280;35529;44.342;25.944;2023-06-10T11:39:44;99991.88;;;33.05;32.92
49122;BME280;35529;44.342;25.944;2023-06-10T11:42:10;99982.31;;;32.99;32.33
49122;BME280;35529;44.342;25.944;2023-06-10T11:44:37;99981.63;;;33.02;33.83
49122;BME280;35529;44.342;25.944;2023-06-10T11:47:03;99987.03;;;32.99;31.66
49122;BME280;35529;44.342;25.944;2023-06-10T11:49:29;99974.06;;;33.19;32.75
49122;BME280;35529;44.342;25.944;2023-06-10T11:51:55;99969.59;;;33.50;31.69
49122;BME280;35529;44.342;25.944;2023-06-10T11:54:22;99963.69;;;33.94;31.82
49122;BME280;35529;44.342;25.944;2023-06-10T11:56:48;99959.75;;;34.41;32.51
49122;BME280;35529;44.342;25.944;2023-06-10T11:59:14;99961.34;;;34.73;31.22
49122;BME280;35529;44.342;25.944;2023-06-10T12:01:44;99954.63;;;35.01;30.79
49122;BME280;35529;44.342;25.944;2023-06-10T12:04:12;99961.81;;;34.25;29.81
49122;BME280;35529;44.342;25.944;2023-06-10T12:09:28;99957.31;;;33.90;31.68
49122;BME280;35529;44.342;25.944;2023-06-10T12:17:05;99944.63;;;33.62;31.41
49122;BME280;35529;44.342;25.944;2023-06-10T12:19:31;99950.50;;;32.98;32.08
49122;BME280;35529;44.342;25.944;2023-06-10T12:22:00;99943.41;;;32.97;33.05
49122;BME280;35529;44.342;25.944;2023-06-10T12:24:26;99946.13;;;33.36;32.97
49122;BME280;35529;44.342;25.944;2023-06-10T12:26:53;99936.63;;;33.77;32.73
49122;BME280;35529;44.342;25.944;2023-06-10T12:29:20;99942.88;;;33.73;30.32
49122;BME280;35529;44.342;25.944;2023-06-10T12:32:00;99929.09;;;33.73;30.35
49122;BME280;35529;44.342;25.944;2023-06-10T12:34:37;99927.69;;;33.60;30.89
49122;BME280;35529;44.342;25.944;2023-06-10T12:37:04;99928.94;;;33.86;31.54
49122;BME280;35529;44.342;25.944;2023-06-10T12:39:32;99926.41;;;34.27;32.14
49122;BME280;35529;44.342;25.944;2023-06-10T12:41:58;99911.13;;;34.03;30.64
49122;BME280;35529;44.342;25.944;2023-06-10T12:44:28;99923.63;;;34.50;31.12
49122;BME280;35529;44.342;25.944;2023-06-10T12:46:55;99919.41;;;34.90;30.12
49122;BME280;35529;44.342;25.944;2023-06-10T12:49:21;99922.88;;;35.18;29.72
49122;BME280;35529;44.342;25.944;2023-06-10T12:51:47;99911.94;;;35.66;30.69
49122;BME280;35529;44.342;25.944;2023-06-10T12:54:14;99911.09;;;36.14;29.07
49122;BME280;35529;44.342;25.944;2023-06-10T12:56:40;99914.91;;;36.54;26.63
49122;BME280;35529;44.342;25.944;2023-06-10T12:59:06;99913.13;;;36.17;27.31
49122;BME280;35529;44.342;25.944;2023-06-10T13:01:32;99911.72;;;35.86;27.55